Overview Statistics Trail Chart Weather Telemetry Raw packets
 

This is the latest recevied weather packets stored in our database for station/object 9A7DI-13. If no packets are shown the sender has not sent any weather packets the latest 10 day(s).

<< 3 4 5 6 7 8 9 >>
Time Temp. Humidity Pressure Rain* Wind** Luminosity Snow
1788599200 30.56° C 37% 1025.8 hPa - - - -
1788598600 30.56° C 36% 1025.6 hPa - - - -
1788598000 31.11° C 35% 1025.4 hPa - - - -
1788597400 31.11° C 34% 1025.3 hPa - - - -
1788596800 31.11° C 33% 1025.1 hPa - - - -
1788596200 31.11° C 32% 1025 hPa - - - -
1788595600 31.11° C 32% 1024.9 hPa - - - -
1788595000 30.56° C 34% 1024.7 hPa - - - -
1788594400 30° C 35% 1024.6 hPa - - - -
1788593800 29.44° C 36% 1024.7 hPa - - - -
1788593200 29.44° C 35% 1024.6 hPa - - - -
1788592600 28.89° C 37% 1024.5 hPa - - - -
1788592000 28.33° C 39% 1024.4 hPa - - - -
1788591400 27.22° C 45% 1024.3 hPa - - - -
1788590800 25.56° C 51% 1024.4 hPa - - - -
1788590200 25° C 56% 1024.3 hPa - - - -
1788589600 23.89° C 58% 1024.2 hPa - - - -
1788589000 23.33° C 62% 1024.2 hPa - - - -
1788588400 22.22° C 63% 1024.2 hPa - - - -
1788587800 21.11° C 66% 1024.1 hPa - - - -
1788587200 20.56° C 71% 1024.1 hPa - - - -
1788586600 19.44° C 74% 1024 hPa - - - -
1788586000 18.33° C 78% 1023.8 hPa - - - -
1788585400 16.67° C 83% 1023.7 hPa - - - -
1788584800 16.11° C 85% 1023.6 hPa - - - -

* Rain since midnight (hover to see other rain measurements)
** Current wind speed in m/s (hover to see current wind gust speed)